Terminal Aerodrome Forecast
Issued by NWS

Home | Current Version | Previous Version | Text Only | Print | Product List | Glossary On
Versions: 1 2 3 4 5 6 7 8 9 10 11 12 13
000
FTUS42 KILM 211100
TAFCRE
TAF
KCRE 211124Z 2112/2212 03009KT P6SM VCSH SCT035 BKN060 OVC100
     FM211800 03009KT 5SM -RA BKN035 OVC060
     FM220000 03009KT 4SM -RA BR SCT008 BKN018 OVC040
     FM220500 04009KT 5SM BR VCSH BKN008 OVC015=

USA.gov is the U.S. government's official web portal to all federal, state and local government web resources and services.